sensor_id;sensor_type;location;lat;lon;timestamp;pressure;altitude;pressure_sealevel;temperature;humidity
55550;BME280;41397;49.972;18.944;2023-02-27T00:01:20;102303.37;;;6.55;59.18
55550;BME280;41397;49.972;18.944;2023-02-27T00:04:22;102308.09;;;6.50;59.25
55550;BME280;41397;49.972;18.944;2023-02-27T00:07:23;102306.30;;;6.49;58.94
55550;BME280;41397;49.972;18.944;2023-02-27T00:10:28;102312.38;;;6.34;58.81
55550;BME280;41397;49.972;18.944;2023-02-27T00:13:29;102309.84;;;6.29;58.93
55550;BME280;41397;49.972;18.944;2023-02-27T00:16:31;102312.42;;;6.32;58.55
55550;BME280;41397;49.972;18.944;2023-02-27T00:19:32;102308.95;;;6.29;58.24
55550;BME280;41397;49.972;18.944;2023-02-27T00:22:34;102309.00;;;6.27;58.71
55550;BME280;41397;49.972;18.944;2023-02-27T00:25:35;102318.06;;;6.28;58.19
55550;BME280;41397;49.972;18.944;2023-02-27T00:28:37;102319.70;;;6.32;58.23
55550;BME280;41397;49.972;18.944;2023-02-27T00:31:38;102321.45;;;6.33;57.62
55550;BME280;41397;49.972;18.944;2023-02-27T00:34:40;102308.62;;;6.14;57.14
55550;BME280;41397;49.972;18.944;2023-02-27T00:37:42;102313.26;;;6.11;57.10
55550;BME280;41397;49.972;18.944;2023-02-27T00:40:43;102305.90;;;6.14;56.95
55550;BME280;41397;49.972;18.944;2023-02-27T00:43:45;102304.65;;;6.23;56.94
55550;BME280;41397;49.972;18.944;2023-02-27T00:46:48;102306.07;;;6.10;56.96
55550;BME280;41397;49.972;18.944;2023-02-27T00:49:50;102295.63;;;5.99;57.05
55550;BME280;41397;49.972;18.944;2023-02-27T00:52:51;102310.74;;;6.06;56.79
55550;BME280;41397;49.972;18.944;2023-02-27T00:55:53;102308.95;;;6.05;56.40
55550;BME280;41397;49.972;18.944;2023-02-27T00:58:56;102313.13;;;5.90;56.25
55550;BME280;41397;49.972;18.944;2023-02-27T01:01:58;102310.08;;;5.99;56.57
55550;BME280;41397;49.972;18.944;2023-02-27T01:04:59;102323.91;;;5.92;56.49
55550;BME280;41397;49.972;18.944;2023-02-27T01:08:01;102316.59;;;5.95;56.38
55550;BME280;41397;49.972;18.944;2023-02-27T01:11:05;102325.45;;;6.00;56.41
55550;BME280;41397;49.972;18.944;2023-02-27T01:14:06;102334.64;;;5.96;55.86
55550;BME280;41397;49.972;18.944;2023-02-27T01:17:08;102328.16;;;6.00;55.93
55550;BME280;41397;49.972;18.944;2023-02-27T01:20:11;102332.05;;;5.93;55.51
55550;BME280;41397;49.972;18.944;2023-02-27T01:23:13;102326.86;;;5.86;55.48
55550;BME280;41397;49.972;18.944;2023-02-27T01:26:14;102340.28;;;5.90;55.15
55550;BME280;41397;49.972;18.944;2023-02-27T01:29:16;102342.99;;;5.90;55.14
55550;BME280;41397;49.972;18.944;2023-02-27T01:32:17;102348.06;;;5.76;54.44
55550;BME280;41397;49.972;18.944;2023-02-27T01:35:21;102358.56;;;5.85;54.54
55550;BME280;41397;49.972;18.944;2023-02-27T01:38:22;102358.95;;;5.74;54.12
55550;BME280;41397;49.972;18.944;2023-02-27T01:41:23;102358.08;;;5.74;54.16
55550;BME280;41397;49.972;18.944;2023-02-27T01:44:26;102368.93;;;5.74;54.28
55550;BME280;41397;49.972;18.944;2023-02-27T01:47:29;102365.45;;;5.70;54.50
55550;BME280;41397;49.972;18.944;2023-02-27T01:50:32;102373.37;;;5.76;54.49
55550;BME280;41397;49.972;18.944;2023-02-27T01:53:37;102372.42;;;5.77;54.34
55550;BME280;41397;49.972;18.944;2023-02-27T01:56:40;102367.66;;;5.84;54.17
55550;BME280;41397;49.972;18.944;2023-02-27T01:59:42;102373.82;;;5.89;53.85
55550;BME280;41397;49.972;18.944;2023-02-27T02:05:57;102368.82;;;5.77;52.85
55550;BME280;41397;49.972;18.944;2023-02-27T02:09:00;102375.13;;;5.77;52.94
55550;BME280;41397;49.972;18.944;2023-02-27T02:12:04;102376.80;;;5.82;53.33
55550;BME280;41397;49.972;18.944;2023-02-27T02:15:10;102379.41;;;5.85;53.35
55550;BME280;41397;49.972;18.944;2023-02-27T02:18:23;102377.52;;;5.87;52.87
55550;BME280;41397;49.972;18.944;2023-02-27T02:28:05;102372.26;;;5.82;52.46
55550;BME280;41397;49.972;18.944;2023-02-27T02:44:21;102389.99;;;5.92;52.48
55550;BME280;41397;49.972;18.944;2023-02-27T02:47:35;102394.81;;;5.84;52.11
55550;BME280;41397;49.972;18.944;2023-02-27T02:57:20;102381.52;;;5.76;51.62
55550;BME280;41397;49.972;18.944;2023-02-27T03:00:39;102385.95;;;5.79;51.36
55550;BME280;41397;49.972;18.944;2023-02-27T03:03:52;102397.07;;;5.71;50.55
55550;BME280;41397;49.972;18.944;2023-02-27T03:07:06;102389.20;;;5.64;50.43
55550;BME280;41397;49.972;18.944;2023-02-27T03:10:15;102393.79;;;5.62;49.93
55550;BME280;41397;49.972;18.944;2023-02-27T03:13:26;102396.11;;;5.47;49.80
55550;BME280;41397;49.972;18.944;2023-02-27T03:16:51;102403.59;;;5.41;49.16
55550;BME280;41397;49.972;18.944;2023-02-27T03:19:56;102400.70;;;5.45;49.04
55550;BME280;41397;49.972;18.944;2023-02-27T03:23:02;102410.74;;;5.43;48.95
55550;BME280;41397;49.972;18.944;2023-02-27T03:26:06;102415.21;;;5.44;48.80
55550;BME280;41397;49.972;18.944;2023-02-27T03:29:10;102412.98;;;5.57;49.32
55550;BME280;41397;49.972;18.944;2023-02-27T03:35:40;102419.07;;;5.64;49.00
55550;BME280;41397;49.972;18.944;2023-02-27T03:38:48;102425.33;;;5.66;48.16
55550;BME280;41397;49.972;18.944;2023-02-27T03:45:17;102439.33;;;5.27;47.87
55550;BME280;41397;49.972;18.944;2023-02-27T03:48:18;102428.41;;;5.28;48.46
55550;BME280;41397;49.972;18.944;2023-02-27T03:51:25;102438.27;;;5.31;48.83
55550;BME280;41397;49.972;18.944;2023-02-27T03:54:35;102428.05;;;5.39;48.89
55550;BME280;41397;49.972;18.944;2023-02-27T03:57:39;102440.76;;;5.37;48.66
55550;BME280;41397;49.972;18.944;2023-02-27T04:00:41;102446.41;;;5.31;49.03
55550;BME280;41397;49.972;18.944;2023-02-27T04:03:50;102448.87;;;5.39;49.76
55550;BME280;41397;49.972;18.944;2023-02-27T04:06:57;102455.88;;;5.46;49.26
55550;BME280;41397;49.972;18.944;2023-02-27T04:10:26;102443.12;;;5.48;49.29
55550;BME280;41397;49.972;18.944;2023-02-27T04:16:59;102457.60;;;5.48;49.74
55550;BME280;41397;49.972;18.944;2023-02-27T04:20:18;102468.23;;;5.54;49.99
55550;BME280;41397;49.972;18.944;2023-02-27T04:26:51;102470.74;;;5.61;50.63
55550;BME280;41397;49.972;18.944;2023-02-27T04:30:03;102474.44;;;5.58;51.17
55550;BME280;41397;49.972;18.944;2023-02-27T04:33:20;102474.44;;;5.58;51.34
55550;BME280;41397;49.972;18.944;2023-02-27T04:39:47;102460.98;;;5.55;52.08
55550;BME280;41397;49.972;18.944;2023-02-27T04:42:54;102472.72;;;5.55;52.34
55550;BME280;41397;49.972;18.944;2023-02-27T04:45:58;102463.66;;;5.56;52.53
55550;BME280;41397;49.972;18.944;2023-02-27T04:49:17;102472.50;;;5.62;52.92
55550;BME280;41397;49.972;18.944;2023-02-27T04:55:35;102475.17;;;5.63;53.22
55550;BME280;41397;49.972;18.944;2023-02-27T04:58:47;102476.93;;;5.64;53.84
55550;BME280;41397;49.972;18.944;2023-02-27T05:02:00;102475.22;;;5.62;54.02
55550;BME280;41397;49.972;18.944;2023-02-27T05:05:10;102487.48;;;5.47;54.36
55550;BME280;41397;49.972;18.944;2023-02-27T05:08:21;102489.10;;;5.52;54.83
55550;BME280;41397;49.972;18.944;2023-02-27T05:11:34;102485.61;;;5.49;54.99
55550;BME280;41397;49.972;18.944;2023-02-27T05:14:44;102494.68;;;5.48;55.06
55550;BME280;41397;49.972;18.944;2023-02-27T05:18:01;102496.29;;;5.53;55.40
55550;BME280;41397;49.972;18.944;2023-02-27T05:24:27;102491.67;;;5.57;55.61
55550;BME280;41397;49.972;18.944;2023-02-27T05:27:41;102491.50;;;5.62;55.60
55550;BME280;41397;49.972;18.944;2023-02-27T05:30:55;102506.13;;;5.58;55.94
55550;BME280;41397;49.972;18.944;2023-02-27T05:34:08;102512.52;;;5.56;56.17
55550;BME280;41397;49.972;18.944;2023-02-27T05:37:19;102508.11;;;5.52;56.24
55550;BME280;41397;49.972;18.944;2023-02-27T05:40:30;102504.26;;;5.60;56.30
55550;BME280;41397;49.972;18.944;2023-02-27T05:43:40;102506.27;;;5.53;56.33
55550;BME280;41397;49.972;18.944;2023-02-27T05:46:51;102517.19;;;5.51;56.45
55550;BME280;41397;49.972;18.944;2023-02-27T05:53:14;102521.35;;;5.62;56.32
55550;BME280;41397;49.972;18.944;2023-02-27T05:56:20;102524.91;;;5.64;56.91
55550;BME280;41397;49.972;18.944;2023-02-27T05:59:32;102529.34;;;5.66;56.39
55550;BME280;41397;49.972;18.944;2023-02-27T06:02:35;102531.23;;;5.64;56.53
55550;BME280;41397;49.972;18.944;2023-02-27T06:05:43;102532.38;;;5.57;56.55
55550;BME280;41397;49.972;18.944;2023-02-27T06:08:46;102534.74;;;5.68;56.67
55550;BME280;41397;49.972;18.944;2023-02-27T06:11:47;102531.94;;;5.71;56.92
55550;BME280;41397;49.972;18.944;2023-02-27T06:14:49;102532.49;;;5.54;56.45
55550;BME280;41397;49.972;18.944;2023-02-27T06:17:51;102535.20;;;5.54;56.51
55550;BME280;41397;49.972;18.944;2023-02-27T06:20:53;102539.67;;;5.55;56.62
55550;BME280;41397;49.972;18.944;2023-02-27T06:23:54;102542.99;;;5.65;56.54
55550;BME280;41397;49.972;18.944;2023-02-27T06:26:56;102537.98;;;5.51;57.02
55550;BME280;41397;49.972;18.944;2023-02-27T06:29:58;102551.66;;;5.48;57.29
55550;BME280;41397;49.972;18.944;2023-02-27T06:32:59;102548.13;;;5.46;57.03
55550;BME280;41397;49.972;18.944;2023-02-27T06:36:01;102547.83;;;5.55;56.75
55550;BME280;41397;49.972;18.944;2023-02-27T06:39:02;102548.66;;;5.57;57.00
55550;BME280;41397;49.972;18.944;2023-02-27T06:42:06;102559.05;;;5.43;57.15
55550;BME280;41397;49.972;18.944;2023-02-27T06:45:09;102557.08;;;5.48;57.36
55550;BME280;41397;49.972;18.944;2023-02-27T06:48:11;102574.52;;;5.41;57.35
55550;BME280;41397;49.972;18.944;2023-02-27T06:51:15;102568.29;;;5.37;57.76
55550;BME280;41397;49.972;18.944;2023-02-27T06:54:18;102558.07;;;5.45;57.34
55550;BME280;41397;49.972;18.944;2023-02-27T06:57:19;102574.18;;;5.51;57.47
55550;BME280;41397;49.972;18.944;2023-02-27T07:00:22;102573.33;;;5.49;57.29
55550;BME280;41397;49.972;18.944;2023-02-27T07:03:23;102582.21;;;5.54;57.29
55550;BME280;41397;49.972;18.944;2023-02-27T07:06:25;102577.04;;;5.47;57.38
55550;BME280;41397;49.972;18.944;2023-02-27T07:09:27;102587.20;;;5.40;57.30
55550;BME280;41397;49.972;18.944;2023-02-27T07:12:28;102585.14;;;5.48;57.58
55550;BME280;41397;49.972;18.944;2023-02-27T07:15:30;102585.05;;;5.51;57.71
55550;BME280;41397;49.972;18.944;2023-02-27T07:18:31;102582.14;;;5.28;57.75
55550;BME280;41397;49.972;18.944;2023-02-27T07:21:33;102593.13;;;5.23;58.32
55550;BME280;41397;49.972;18.944;2023-02-27T07:24:35;102593.09;;;5.25;58.63
55550;BME280;41397;49.972;18.944;2023-02-27T07:27:37;102598.84;;;5.44;58.42
55550;BME280;41397;49.972;18.944;2023-02-27T07:30:38;102600.46;;;5.49;58.20
55550;BME280;41397;49.972;18.944;2023-02-27T07:33:41;102589.52;;;5.52;57.80
55550;BME280;41397;49.972;18.944;2023-02-27T07:36:43;102591.21;;;5.56;57.50
55550;BME280;41397;49.972;18.944;2023-02-27T07:39:44;102593.54;;;5.67;57.61
55550;BME280;41397;49.972;18.944;2023-02-27T07:42:47;102597.96;;;5.71;57.76
55550;BME280;41397;49.972;18.944;2023-02-27T07:45:49;102592.27;;;5.79;57.27
55550;BME280;41397;49.972;18.944;2023-02-27T07:48:52;102610.98;;;5.88;56.77
55550;BME280;41397;49.972;18.944;2023-02-27T07:51:54;102615.63;;;5.85;56.46
55550;BME280;41397;49.972;18.944;2023-02-27T07:54:56;102614.47;;;5.93;55.51
55550;BME280;41397;49.972;18.944;2023-02-27T07:57:57;102618.95;;;5.94;54.99
55550;BME280;41397;49.972;18.944;2023-02-27T08:00:59;102622.72;;;5.89;55.01
55550;BME280;41397;49.972;18.944;2023-02-27T08:04:00;102618.69;;;5.74;54.45
55550;BME280;41397;49.972;18.944;2023-02-27T08:07:02;102626.93;;;5.71;54.46
55550;BME280;41397;49.972;18.944;2023-02-27T08:10:06;102629.34;;;5.80;53.07
55550;BME280;41397;49.972;18.944;2023-02-27T08:13:08;102622.57;;;5.95;53.32
55550;BME280;41397;49.972;18.944;2023-02-27T08:16:10;102632.90;;;6.10;52.70
55550;BME280;41397;49.972;18.944;2023-02-27T08:19:12;102635.73;;;6.07;51.70
55550;BME280;41397;49.972;18.944;2023-02-27T08:22:14;102639.84;;;6.19;51.90
55550;BME280;41397;49.972;18.944;2023-02-27T08:25:16;102642.64;;;6.17;50.73
55550;BME280;41397;49.972;18.944;2023-02-27T08:28:18;102647.92;;;6.22;50.24
55550;BME280;41397;49.972;18.944;2023-02-27T08:31:19;102649.63;;;6.25;49.54
55550;BME280;41397;49.972;18.944;2023-02-27T08:34:21;102643.55;;;6.16;47.99
55550;BME280;41397;49.972;18.944;2023-02-27T08:37:23;102645.35;;;6.17;48.23
55550;BME280;41397;49.972;18.944;2023-02-27T08:40:25;102654.03;;;6.29;47.44
55550;BME280;41397;49.972;18.944;2023-02-27T08:43:29;102657.88;;;6.21;46.48
55550;BME280;41397;49.972;18.944;2023-02-27T08:46:30;102650.35;;;6.30;46.48
55550;BME280;41397;49.972;18.944;2023-02-27T08:49:32;102648.59;;;6.29;46.31
55550;BME280;41397;49.972;18.944;2023-02-27T08:52:33;102659.29;;;6.07;45.51
55550;BME280;41397;49.972;18.944;2023-02-27T08:55:35;102661.01;;;6.09;46.34
55550;BME280;41397;49.972;18.944;2023-02-27T08:58:36;102665.36;;;6.15;46.13
55550;BME280;41397;49.972;18.944;2023-02-27T09:01:38;102664.52;;;6.13;46.10
55550;BME280;41397;49.972;18.944;2023-02-27T09:04:40;102676.71;;;5.99;45.69
55550;BME280;41397;49.972;18.944;2023-02-27T09:07:42;102683.23;;;5.94;45.68
55550;BME280;41397;49.972;18.944;2023-02-27T09:10:44;102669.95;;;6.13;46.64
55550;BME280;41397;49.972;18.944;2023-02-27T09:13:46;102675.80;;;6.27;47.02
55550;BME280;41397;49.972;18.944;2023-02-27T09:16:47;102673.67;;;6.37;46.95
55550;BME280;41397;49.972;18.944;2023-02-27T09:19:50;102680.88;;;6.38;46.99
55550;BME280;41397;49.972;18.944;2023-02-27T09:22:52;102675.76;;;6.55;47.66
55550;BME280;41397;49.972;18.944;2023-02-27T09:25:54;102680.45;;;6.77;47.29
55550;BME280;41397;49.972;18.944;2023-02-27T09:28:55;102681.95;;;6.85;46.72
55550;BME280;41397;49.972;18.944;2023-02-27T09:31:59;102677.43;;;6.84;45.52
55550;BME280;41397;49.972;18.944;2023-02-27T09:35:00;102677.11;;;6.94;45.90
55550;BME280;41397;49.972;18.944;2023-02-27T09:38:02;102680.60;;;6.97;45.98
55550;BME280;41397;49.972;18.944;2023-02-27T09:47:39;102687.20;;;6.90;45.65
55550;BME280;41397;49.972;18.944;2023-02-27T09:50:46;102695.77;;;7.04;47.24
55550;BME280;41397;49.972;18.944;2023-02-27T09:53:51;102689.60;;;6.99;47.80
55550;BME280;41397;49.972;18.944;2023-02-27T09:56:59;102701.71;;;6.91;48.16
55550;BME280;41397;49.972;18.944;2023-02-27T10:00:11;102698.00;;;6.93;48.71
55550;BME280;41397;49.972;18.944;2023-02-27T10:10:16;102709.75;;;6.94;51.67
55550;BME280;41397;49.972;18.944;2023-02-27T10:16:13;102697.53;;;7.05;52.73
55550;BME280;41397;49.972;18.944;2023-02-27T10:22:32;102706.47;;;7.09;53.27
55550;BME280;41397;49.972;18.944;2023-02-27T10:25:42;102704.09;;;7.00;53.36
55550;BME280;41397;49.972;18.944;2023-02-27T10:28:45;102706.77;;;7.01;53.51
55550;BME280;41397;49.972;18.944;2023-02-27T10:31:53;102709.25;;;6.82;53.91
55550;BME280;41397;49.972;18.944;2023-02-27T10:41:32;102724.78;;;6.26;56.29
55550;BME280;41397;49.972;18.944;2023-02-27T10:44:35;102725.06;;;6.16;55.92
55550;BME280;41397;49.972;18.944;2023-02-27T10:47:36;102731.98;;;5.98;57.29
55550;BME280;41397;49.972;18.944;2023-02-27T10:50:46;102723.18;;;5.89;58.74
55550;BME280;41397;49.972;18.944;2023-02-27T11:00:31;102729.21;;;5.70;60.23
55550;BME280;41397;49.972;18.944;2023-02-27T11:03:41;102730.77;;;5.77;60.05
55550;BME280;41397;49.972;18.944;2023-02-27T11:06:50;102728.36;;;5.68;60.67
55550;BME280;41397;49.972;18.944;2023-02-27T11:10:00;102728.16;;;5.74;60.76
55550;BME280;41397;49.972;18.944;2023-02-27T11:13:18;102731.01;;;5.70;59.42
55550;BME280;41397;49.972;18.944;2023-02-27T11:16:17;102734.96;;;5.60;59.30
55550;BME280;41397;49.972;18.944;2023-02-27T11:19:34;102739.15;;;5.70;58.84
55550;BME280;41397;49.972;18.944;2023-02-27T11:22:36;102732.72;;;5.74;59.20
55550;BME280;41397;49.972;18.944;2023-02-27T11:25:38;102726.66;;;5.95;59.50
55550;BME280;41397;49.972;18.944;2023-02-27T11:28:40;102727.60;;;5.93;58.72
55550;BME280;41397;49.972;18.944;2023-02-27T11:31:54;102724.28;;;6.13;58.07
55550;BME280;41397;49.972;18.944;2023-02-27T11:34:56;102718.95;;;6.10;57.90
55550;BME280;41397;49.972;18.944;2023-02-27T11:38:04;102711.34;;;6.21;56.99
55550;BME280;41397;49.972;18.944;2023-02-27T11:41:07;102715.88;;;6.20;55.50
55550;BME280;41397;49.972;18.944;2023-02-27T11:44:16;102716.38;;;6.33;54.76
55550;BME280;41397;49.972;18.944;2023-02-27T11:47:26;102718.09;;;6.08;54.31
55550;BME280;41397;49.972;18.944;2023-02-27T11:57:04;102706.32;;;6.35;54.56
55550;BME280;41397;49.972;18.944;2023-02-27T12:00:16;102722.09;;;6.52;53.95
55550;BME280;41397;49.972;18.944;2023-02-27T12:03:33;102692.86;;;6.84;53.28
55550;BME280;41397;49.972;18.944;2023-02-27T12:06:40;102702.93;;;7.07;64.43
55550;BME280;41397;49.972;18.944;2023-02-27T12:13:04;102694.90;;;7.04;54.63
55550;BME280;41397;49.972;18.944;2023-02-27T12:19:29;102711.26;;;7.02;51.67
55550;BME280;41397;49.972;18.944;2023-02-27T12:22:35;102704.82;;;7.05;52.17
55550;BME280;41397;49.972;18.944;2023-02-27T12:25:46;102695.97;;;7.23;50.98
55550;BME280;41397;49.972;18.944;2023-02-27T12:35:27;102715.55;;;7.09;49.92
55550;BME280;41397;49.972;18.944;2023-02-27T12:38:30;102707.38;;;7.09;49.29
55550;BME280;41397;49.972;18.944;2023-02-27T12:41:42;102719.84;;;6.90;50.01
55550;BME280;41397;49.972;18.944;2023-02-27T12:51:29;102720.45;;;6.98;50.75
55550;BME280;41397;49.972;18.944;2023-02-27T12:54:38;102726.50;;;6.81;51.02
55550;BME280;41397;49.972;18.944;2023-02-27T13:11:06;102732.33;;;6.44;48.60
55550;BME280;41397;49.972;18.944;2023-02-27T13:20:48;102744.18;;;6.68;49.02
55550;BME280;41397;49.972;18.944;2023-02-27T13:24:06;102742.84;;;6.55;48.08
55550;BME280;41397;49.972;18.944;2023-02-27T13:30:34;102746.81;;;6.71;47.35
55550;BME280;41397;49.972;18.944;2023-02-27T13:34:06;102739.59;;;6.70;47.50
55550;BME280;41397;49.972;18.944;2023-02-27T13:40:26;102734.22;;;6.69;46.57
55550;BME280;41397;49.972;18.944;2023-02-27T13:43:31;102730.27;;;6.77;46.76
55550;BME280;41397;49.972;18.944;2023-02-27T13:46:32;102737.23;;;6.86;47.06
55550;BME280;41397;49.972;18.944;2023-02-27T13:49:42;102733.97;;;7.01;46.49
55550;BME280;41397;49.972;18.944;2023-02-27T13:52:44;102732.86;;;7.07;46.43
55550;BME280;41397;49.972;18.944;2023-02-27T13:55:47;102735.35;;;7.13;46.81
55550;BME280;41397;49.972;18.944;2023-02-27T13:58:49;102739.84;;;7.14;46.92
55550;BME280;41397;49.972;18.944;2023-02-27T14:01:54;102745.51;;;7.08;46.68
55550;BME280;41397;49.972;18.944;2023-02-27T14:04:59;102753.73;;;7.06;46.81
55550;BME280;41397;49.972;18.944;2023-02-27T14:08:29;102748.98;;;7.11;46.93
55550;BME280;41397;49.972;18.944;2023-02-27T14:11:24;102747.23;;;7.10;47.28
55550;BME280;41397;49.972;18.944;2023-02-27T14:14:37;102757.46;;;7.04;46.67
55550;BME280;41397;49.972;18.944;2023-02-27T14:17:41;102744.90;;;7.00;47.17
55550;BME280;41397;49.972;18.944;2023-02-27T14:20:49;102751.80;;;7.10;47.23
55550;BME280;41397;49.972;18.944;2023-02-27T14:23:52;102752.52;;;7.15;46.64
55550;BME280;41397;49.972;18.944;2023-02-27T14:26:55;102762.41;;;7.18;45.97
55550;BME280;41397;49.972;18.944;2023-02-27T14:30:03;102759.46;;;7.24;46.72
55550;BME280;41397;49.972;18.944;2023-02-27T14:36:24;102775.30;;;7.13;46.94
55550;BME280;41397;49.972;18.944;2023-02-27T14:39:34;102774.70;;;7.03;47.28
55550;BME280;41397;49.972;18.944;2023-02-27T14:45:53;102785.85;;;6.95;47.28
55550;BME280;41397;49.972;18.944;2023-02-27T14:49:02;102784.55;;;7.07;47.29
55550;BME280;41397;49.972;18.944;2023-02-27T14:52:20;102787.43;;;7.02;46.35
55550;BME280;41397;49.972;18.944;2023-02-27T14:55:24;102790.41;;;6.95;46.55
55550;BME280;41397;49.972;18.944;2023-02-27T14:58:31;102792.65;;;6.82;46.54
55550;BME280;41397;49.972;18.944;2023-02-27T15:01:34;102789.78;;;6.86;47.06
55550;BME280;41397;49.972;18.944;2023-02-27T15:04:36;102798.06;;;6.83;46.63
55550;BME280;41397;49.972;18.944;2023-02-27T15:07:38;102797.42;;;6.75;46.20
55550;BME280;41397;49.972;18.944;2023-02-27T15:10:41;102803.95;;;6.70;46.08
55550;BME280;41397;49.972;18.944;2023-02-27T15:13:44;102795.80;;;6.70;46.17
55550;BME280;41397;49.972;18.944;2023-02-27T15:16:46;102795.13;;;6.63;45.52
55550;BME280;41397;49.972;18.944;2023-02-27T15:19:53;102790.61;;;6.62;44.93
55550;BME280;41397;49.972;18.944;2023-02-27T15:23:00;102797.56;;;6.44;43.65
55550;BME280;41397;49.972;18.944;2023-02-27T15:26:08;102802.15;;;6.42;43.69
55550;BME280;41397;49.972;18.944;2023-02-27T15:29:19;102807.52;;;6.43;43.98
55550;BME280;41397;49.972;18.944;2023-02-27T15:32:35;102805.54;;;6.49;43.98
55550;BME280;41397;49.972;18.944;2023-02-27T15:35:42;102804.73;;;6.47;44.11
55550;BME280;41397;49.972;18.944;2023-02-27T15:38:44;102814.89;;;6.40;43.93
55550;BME280;41397;49.972;18.944;2023-02-27T15:41:51;102817.30;;;6.21;44.19
55550;BME280;41397;49.972;18.944;2023-02-27T15:44:57;102821.55;;;6.30;44.55
55550;BME280;41397;49.972;18.944;2023-02-27T15:47:59;102823.05;;;6.40;44.42
55550;BME280;41397;49.972;18.944;2023-02-27T15:51:03;102829.99;;;6.20;44.28
55550;BME280;41397;49.972;18.944;2023-02-27T15:54:05;102824.56;;;6.20;44.75
55550;BME280;41397;49.972;18.944;2023-02-27T15:57:09;102833.07;;;6.38;44.75
55550;BME280;41397;49.972;18.944;2023-02-27T16:00:15;102838.60;;;6.35;44.37
55550;BME280;41397;49.972;18.944;2023-02-27T16:03:22;102831.34;;;6.35;44.41
55550;BME280;41397;49.972;18.944;2023-02-27T16:06:26;102835.89;;;6.35;44.65
55550;BME280;41397;49.972;18.944;2023-02-27T16:09:31;102839.82;;;6.25;44.67
55550;BME280;41397;49.972;18.944;2023-02-27T16:12:35;102848.07;;;6.21;45.09
55550;BME280;41397;49.972;18.944;2023-02-27T16:15:38;102846.33;;;6.19;45.23
55550;BME280;41397;49.972;18.944;2023-02-27T16:22:01;102859.57;;;6.00;45.36
55550;BME280;41397;49.972;18.944;2023-02-27T16:25:08;102860.59;;;5.97;45.52
55550;BME280;41397;49.972;18.944;2023-02-27T16:28:14;102863.06;;;6.05;45.64
55550;BME280;41397;49.972;18.944;2023-02-27T16:34:38;102873.02;;;6.05;45.88
55550;BME280;41397;49.972;18.944;2023-02-27T16:37:46;102871.16;;;6.07;45.70
55550;BME280;41397;49.972;18.944;2023-02-27T16:42:08;102882.83;;;6.10;46.15
55550;BME280;41397;49.972;18.944;2023-02-27T16:45:15;102880.30;;;6.04;46.26
55550;BME280;41397;49.972;18.944;2023-02-27T16:48:17;102886.95;;;5.92;46.24
55550;BME280;41397;49.972;18.944;2023-02-27T16:51:24;102884.35;;;5.88;46.33
55550;BME280;41397;49.972;18.944;2023-02-27T16:54:26;102902.50;;;5.86;46.37
55550;BME280;41397;49.972;18.944;2023-02-27T16:57:27;102897.09;;;5.86;46.63
55550;BME280;41397;49.972;18.944;2023-02-27T17:00:29;102889.32;;;5.72;46.57
55550;BME280;41397;49.972;18.944;2023-02-27T17:03:30;102905.73;;;5.67;46.50
55550;BME280;41397;49.972;18.944;2023-02-27T17:06:33;102905.82;;;5.64;46.60
55550;BME280;41397;49.972;18.944;2023-02-27T17:09:35;102902.27;;;5.62;46.80
55550;BME280;41397;49.972;18.944;2023-02-27T17:12:36;102915.67;;;5.68;46.41
55550;BME280;41397;49.972;18.944;2023-02-27T17:15:39;102917.71;;;5.60;46.35
55550;BME280;41397;49.972;18.944;2023-02-27T17:18:40;102924.11;;;5.58;46.68
55550;BME280;41397;49.972;18.944;2023-02-27T17:21:42;102929.80;;;5.48;46.85
55550;BME280;41397;49.972;18.944;2023-02-27T17:24:43;102918.77;;;5.54;47.02
55550;BME280;41397;49.972;18.944;2023-02-27T17:27:45;102920.22;;;5.68;46.71
55550;BME280;41397;49.972;18.944;2023-02-27T17:30:47;102929.93;;;5.76;46.51
55550;BME280;41397;49.972;18.944;2023-02-27T17:33:49;102930.70;;;5.82;46.08
55550;BME280;41397;49.972;18.944;2023-02-27T17:36:51;102933.35;;;5.83;46.29
55550;BME280;41397;49.972;18.944;2023-02-27T17:39:53;102933.35;;;5.83;46.33
55550;BME280;41397;49.972;18.944;2023-02-27T17:42:55;102934.09;;;5.90;46.56
55550;BME280;41397;49.972;18.944;2023-02-27T17:45:57;102938.70;;;5.86;46.19
55550;BME280;41397;49.972;18.944;2023-02-27T17:48:58;102943.53;;;5.75;46.16
55550;BME280;41397;49.972;18.944;2023-02-27T17:52:00;102940.67;;;5.81;46.27
55550;BME280;41397;49.972;18.944;2023-02-27T17:55:03;102940.73;;;5.78;46.45
55550;BME280;41397;49.972;18.944;2023-02-27T17:58:04;102939.63;;;5.85;46.52
55550;BME280;41397;49.972;18.944;2023-02-27T18:01:09;102952.56;;;5.75;46.14
55550;BME280;41397;49.972;18.944;2023-02-27T18:04:11;102944.23;;;5.83;46.28
55550;BME280;41397;49.972;18.944;2023-02-27T18:07:14;102957.64;;;5.89;46.23
55550;BME280;41397;49.972;18.944;2023-02-27T18:10:15;102955.82;;;5.90;46.23
55550;BME280;41397;49.972;18.944;2023-02-27T18:13:18;102955.73;;;5.93;46.21
55550;BME280;41397;49.972;18.944;2023-02-27T18:16:22;102952.50;;;5.78;45.97
55550;BME280;41397;49.972;18.944;2023-02-27T18:19:25;102960.48;;;5.85;46.41
55550;BME280;41397;49.972;18.944;2023-02-27T18:22:27;102965.02;;;5.84;46.27
55550;BME280;41397;49.972;18.944;2023-02-27T18:25:32;102961.55;;;5.79;46.20
55550;BME280;41397;49.972;18.944;2023-02-27T18:28:34;102966.77;;;5.87;46.37
55550;BME280;41397;49.972;18.944;2023-02-27T18:31:45;102970.75;;;5.73;46.31
55550;BME280;41397;49.972;18.944;2023-02-27T18:34:50;102975.52;;;5.64;46.56
55550;BME280;41397;49.972;18.944;2023-02-27T18:37:52;102980.75;;;5.71;46.81
55550;BME280;41397;49.972;18.944;2023-02-27T18:40:53;102993.38;;;5.72;46.81
55550;BME280;41397;49.972;18.944;2023-02-27T18:43:55;102992.60;;;5.67;46.47